sensor_id;sensor_type;location;lat;lon;timestamp;temperature;humidity
30889;DHT22;51092;50.874;7.024;2024-02-15T00:00:16;11.90;99.90
30889;DHT22;51092;50.874;7.024;2024-02-15T00:01:18;11.90;99.90
30889;DHT22;51092;50.874;7.024;2024-02-15T00:02:19;11.80;99.90
30889;DHT22;51092;50.874;7.024;2024-02-15T00:03:22;11.80;99.90
30889;DHT22;51092;50.874;7.024;2024-02-15T00:04:25;11.80;99.90
30889;DHT22;51092;50.874;7.024;2024-02-15T00:05:27;11.90;99.90
30889;DHT22;51092;50.874;7.024;2024-02-15T00:06:28;12.00;99.90
30889;DHT22;51092;50.874;7.024;2024-02-15T00:07:30;12.00;99.90
30889;DHT22;51092;50.874;7.024;2024-02-15T00:08:31;12.00;99.90
30889;DHT22;51092;50.874;7.024;2024-02-15T00:09:33;12.00;99.90
30889;DHT22;51092;50.874;7.024;2024-02-15T00:10:35;12.20;99.90
30889;DHT22;51092;50.874;7.024;2024-02-15T00:11:37;12.10;99.90
30889;DHT22;51092;50.874;7.024;2024-02-15T00:12:41;12.00;99.90
30889;DHT22;51092;50.874;7.024;2024-02-15T00:13:43;12.20;99.90
30889;DHT22;51092;50.874;7.024;2024-02-15T00:14:45;12.20;99.90
30889;DHT22;51092;50.874;7.024;2024-02-15T00:15:48;12.20;99.90
30889;DHT22;51092;50.874;7.024;2024-02-15T00:16:50;12.30;99.90
30889;DHT22;51092;50.874;7.024;2024-02-15T00:17:52;12.30;99.90
30889;DHT22;51092;50.874;7.024;2024-02-15T00:18:54;12.50;99.90
30889;DHT22;51092;50.874;7.024;2024-02-15T00:19:58;12.50;99.90
30889;DHT22;51092;50.874;7.024;2024-02-15T00:21:01;12.50;99.90
30889;DHT22;51092;50.874;7.024;2024-02-15T00:22:02;12.50;99.90
30889;DHT22;51092;50.874;7.024;2024-02-15T00:23:05;12.60;99.90
30889;DHT22;51092;50.874;7.024;2024-02-15T00:24:07;12.60;99.90
30889;DHT22;51092;50.874;7.024;2024-02-15T00:25:10;12.70;99.90
30889;DHT22;51092;50.874;7.024;2024-02-15T00:26:12;12.60;99.90
30889;DHT22;51092;50.874;7.024;2024-02-15T00:27:13;12.70;99.90
30889;DHT22;51092;50.874;7.024;2024-02-15T00:28:16;12.70;99.90
30889;DHT22;51092;50.874;7.024;2024-02-15T00:29:18;12.70;99.90
30889;DHT22;51092;50.874;7.024;2024-02-15T00:30:21;12.60;99.90
30889;DHT22;51092;50.874;7.024;2024-02-15T00:31:22;12.50;99.90
30889;DHT22;51092;50.874;7.024;2024-02-15T00:32:25;12.60;99.90
30889;DHT22;51092;50.874;7.024;2024-02-15T00:33:26;12.60;99.90
30889;DHT22;51092;50.874;7.024;2024-02-15T00:34:29;12.70;99.90
30889;DHT22;51092;50.874;7.024;2024-02-15T00:35:32;12.50;99.90
30889;DHT22;51092;50.874;7.024;2024-02-15T00:36:35;12.40;99.90
30889;DHT22;51092;50.874;7.024;2024-02-15T00:37:36;12.30;99.90
30889;DHT22;51092;50.874;7.024;2024-02-15T00:38:38;12.40;99.90
30889;DHT22;51092;50.874;7.024;2024-02-15T00:39:40;12.20;99.90
30889;DHT22;51092;50.874;7.024;2024-02-15T00:40:43;12.10;99.90
30889;DHT22;51092;50.874;7.024;2024-02-15T00:41:46;12.10;99.90
30889;DHT22;51092;50.874;7.024;2024-02-15T00:42:48;12.10;99.90
30889;DHT22;51092;50.874;7.024;2024-02-15T00:43:50;12.20;99.90
30889;DHT22;51092;50.874;7.024;2024-02-15T00:44:52;12.20;99.90
30889;DHT22;51092;50.874;7.024;2024-02-15T00:45:55;12.00;99.90
30889;DHT22;51092;50.874;7.024;2024-02-15T00:46:56;12.00;99.90
30889;DHT22;51092;50.874;7.024;2024-02-15T00:47:59;12.00;99.90
30889;DHT22;51092;50.874;7.024;2024-02-15T00:49:00;12.00;99.90
30889;DHT22;51092;50.874;7.024;2024-02-15T00:50:04;12.10;99.90
30889;DHT22;51092;50.874;7.024;2024-02-15T00:51:07;12.00;99.90
30889;DHT22;51092;50.874;7.024;2024-02-15T00:52:10;12.00;99.90
30889;DHT22;51092;50.874;7.024;2024-02-15T00:53:11;11.90;99.90
30889;DHT22;51092;50.874;7.024;2024-02-15T00:54:14;11.90;99.90
30889;DHT22;51092;50.874;7.024;2024-02-15T00:55:17;11.90;99.90
30889;DHT22;51092;50.874;7.024;2024-02-15T00:56:20;11.90;99.90
30889;DHT22;51092;50.874;7.024;2024-02-15T00:57:23;11.80;99.90
30889;DHT22;51092;50.874;7.024;2024-02-15T00:58:26;11.90;99.90
30889;DHT22;51092;50.874;7.024;2024-02-15T00:59:28;11.80;99.90
30889;DHT22;51092;50.874;7.024;2024-02-15T01:00:30;11.90;99.90
30889;DHT22;51092;50.874;7.024;2024-02-15T01:01:32;11.80;99.90
30889;DHT22;51092;50.874;7.024;2024-02-15T01:02:33;11.80;99.90
30889;DHT22;51092;50.874;7.024;2024-02-15T01:03:36;11.80;99.90
30889;DHT22;51092;50.874;7.024;2024-02-15T01:04:37;11.80;99.90
30889;DHT22;51092;50.874;7.024;2024-02-15T01:05:39;11.80;99.90
30889;DHT22;51092;50.874;7.024;2024-02-15T01:06:42;11.80;99.90
30889;DHT22;51092;50.874;7.024;2024-02-15T01:07:44;11.80;99.90
30889;DHT22;51092;50.874;7.024;2024-02-15T01:08:46;11.80;99.90
30889;DHT22;51092;50.874;7.024;2024-02-15T01:09:48;11.80;99.90
30889;DHT22;51092;50.874;7.024;2024-02-15T01:10:50;11.80;99.90
30889;DHT22;51092;50.874;7.024;2024-02-15T01:11:53;11.70;99.90
30889;DHT22;51092;50.874;7.024;2024-02-15T01:12:55;11.70;99.90
30889;DHT22;51092;50.874;7.024;2024-02-15T01:13:58;11.80;99.90
30889;DHT22;51092;50.874;7.024;2024-02-15T01:14:59;11.70;99.90
30889;DHT22;51092;50.874;7.024;2024-02-15T01:16:02;11.80;99.90
30889;DHT22;51092;50.874;7.024;2024-02-15T01:17:04;11.70;99.90
30889;DHT22;51092;50.874;7.024;2024-02-15T01:18:07;11.80;99.90
30889;DHT22;51092;50.874;7.024;2024-02-15T01:19:08;11.80;99.90
30889;DHT22;51092;50.874;7.024;2024-02-15T01:20:11;11.80;99.90
30889;DHT22;51092;50.874;7.024;2024-02-15T01:21:12;11.80;99.90
30889;DHT22;51092;50.874;7.024;2024-02-15T01:22:16;11.70;99.90
30889;DHT22;51092;50.874;7.024;2024-02-15T01:23:17;11.70;99.90
30889;DHT22;51092;50.874;7.024;2024-02-15T01:24:21;11.70;99.90
30889;DHT22;51092;50.874;7.024;2024-02-15T01:25:23;11.70;99.90
30889;DHT22;51092;50.874;7.024;2024-02-15T01:26:24;11.80;99.90
30889;DHT22;51092;50.874;7.024;2024-02-15T01:27:27;11.80;99.90
30889;DHT22;51092;50.874;7.024;2024-02-15T01:28:31;11.80;99.90
30889;DHT22;51092;50.874;7.024;2024-02-15T01:29:33;11.80;99.90
30889;DHT22;51092;50.874;7.024;2024-02-15T01:30:35;11.80;99.90
30889;DHT22;51092;50.874;7.024;2024-02-15T01:31:38;11.80;99.90
30889;DHT22;51092;50.874;7.024;2024-02-15T01:32:40;11.80;99.90
30889;DHT22;51092;50.874;7.024;2024-02-15T01:33:44;11.80;99.90
30889;DHT22;51092;50.874;7.024;2024-02-15T01:34:45;11.80;99.90
30889;DHT22;51092;50.874;7.024;2024-02-15T01:35:47;11.80;99.90
30889;DHT22;51092;50.874;7.024;2024-02-15T01:36:49;11.80;99.90
30889;DHT22;51092;50.874;7.024;2024-02-15T01:37:52;11.80;99.90
30889;DHT22;51092;50.874;7.024;2024-02-15T01:38:53;11.70;99.90
30889;DHT22;51092;50.874;7.024;2024-02-15T01:39:56;11.80;99.90
30889;DHT22;51092;50.874;7.024;2024-02-15T01:40:57;11.70;99.90
30889;DHT22;51092;50.874;7.024;2024-02-15T01:42:00;11.70;99.90
30889;DHT22;51092;50.874;7.024;2024-02-15T01:43:04;11.70;99.90
30889;DHT22;51092;50.874;7.024;2024-02-15T01:44:07;11.70;99.90
30889;DHT22;51092;50.874;7.024;2024-02-15T01:45:09;11.80;99.90
30889;DHT22;51092;50.874;7.024;2024-02-15T01:46:13;11.80;99.90
30889;DHT22;51092;50.874;7.024;2024-02-15T01:47:16;11.80;99.90
30889;DHT22;51092;50.874;7.024;2024-02-15T01:48:20;11.70;99.90
30889;DHT22;51092;50.874;7.024;2024-02-15T01:49:22;11.70;99.90
30889;DHT22;51092;50.874;7.024;2024-02-15T01:50:25;11.70;99.90
30889;DHT22;51092;50.874;7.024;2024-02-15T01:51:27;11.70;99.90
30889;DHT22;51092;50.874;7.024;2024-02-15T01:52:30;11.70;99.90
30889;DHT22;51092;50.874;7.024;2024-02-15T01:53:34;11.60;99.90
30889;DHT22;51092;50.874;7.024;2024-02-15T01:54:37;11.60;99.90
30889;DHT22;51092;50.874;7.024;2024-02-15T01:55:40;11.70;99.90
30889;DHT22;51092;50.874;7.024;2024-02-15T01:56:43;11.70;99.90
30889;DHT22;51092;50.874;7.024;2024-02-15T01:57:45;11.70;99.90
30889;DHT22;51092;50.874;7.024;2024-02-15T01:58:47;11.60;99.90
30889;DHT22;51092;50.874;7.024;2024-02-15T01:59:50;11.60;99.90
30889;DHT22;51092;50.874;7.024;2024-02-15T02:00:56;11.60;99.90
30889;DHT22;51092;50.874;7.024;2024-02-15T02:01:58;11.60;99.90
30889;DHT22;51092;50.874;7.024;2024-02-15T02:03:02;11.60;99.90
30889;DHT22;51092;50.874;7.024;2024-02-15T02:04:03;11.50;99.90
30889;DHT22;51092;50.874;7.024;2024-02-15T02:05:06;11.50;99.90
30889;DHT22;51092;50.874;7.024;2024-02-15T02:06:10;11.50;99.90
30889;DHT22;51092;50.874;7.024;2024-02-15T02:07:18;11.50;99.90
30889;DHT22;51092;50.874;7.024;2024-02-15T02:08:19;11.50;99.90
30889;DHT22;51092;50.874;7.024;2024-02-15T02:09:22;11.50;99.90
30889;DHT22;51092;50.874;7.024;2024-02-15T02:10:23;11.60;99.90
30889;DHT22;51092;50.874;7.024;2024-02-15T02:11:26;11.60;99.90
30889;DHT22;51092;50.874;7.024;2024-02-15T02:12:31;11.50;99.90
30889;DHT22;51092;50.874;7.024;2024-02-15T02:13:32;11.50;99.90
30889;DHT22;51092;50.874;7.024;2024-02-15T02:14:35;11.50;99.90
30889;DHT22;51092;50.874;7.024;2024-02-15T02:15:36;11.50;99.90
30889;DHT22;51092;50.874;7.024;2024-02-15T02:16:39;11.50;99.90
30889;DHT22;51092;50.874;7.024;2024-02-15T02:17:40;11.50;99.90
30889;DHT22;51092;50.874;7.024;2024-02-15T02:18:42;11.50;99.90
30889;DHT22;51092;50.874;7.024;2024-02-15T02:19:44;11.50;99.90
30889;DHT22;51092;50.874;7.024;2024-02-15T02:20:46;11.50;99.90
30889;DHT22;51092;50.874;7.024;2024-02-15T02:21:47;11.50;99.90
30889;DHT22;51092;50.874;7.024;2024-02-15T02:22:53;11.50;99.90
30889;DHT22;51092;50.874;7.024;2024-02-15T02:23:58;11.50;99.90
30889;DHT22;51092;50.874;7.024;2024-02-15T02:25:05;11.50;99.90
30889;DHT22;51092;50.874;7.024;2024-02-15T02:26:07;11.60;99.90
30889;DHT22;51092;50.874;7.024;2024-02-15T02:27:12;11.60;99.90
30889;DHT22;51092;50.874;7.024;2024-02-15T02:28:14;11.60;99.90
30889;DHT22;51092;50.874;7.024;2024-02-15T02:29:17;11.50;99.90
30889;DHT22;51092;50.874;7.024;2024-02-15T02:30:20;11.60;99.90
30889;DHT22;51092;50.874;7.024;2024-02-15T02:31:23;11.50;99.90
30889;DHT22;51092;50.874;7.024;2024-02-15T02:32:25;11.50;99.90
30889;DHT22;51092;50.874;7.024;2024-02-15T02:33:26;11.60;99.90
30889;DHT22;51092;50.874;7.024;2024-02-15T02:34:30;11.60;99.90
30889;DHT22;51092;50.874;7.024;2024-02-15T02:35:32;11.60;99.90
30889;DHT22;51092;50.874;7.024;2024-02-15T02:36:35;11.50;99.90
30889;DHT22;51092;50.874;7.024;2024-02-15T02:37:37;11.50;99.90
30889;DHT22;51092;50.874;7.024;2024-02-15T02:38:40;11.50;99.90
30889;DHT22;51092;50.874;7.024;2024-02-15T02:39:43;11.50;99.90
30889;DHT22;51092;50.874;7.024;2024-02-15T02:40:46;11.50;99.90
30889;DHT22;51092;50.874;7.024;2024-02-15T02:41:48;11.60;99.90
30889;DHT22;51092;50.874;7.024;2024-02-15T02:42:52;11.60;99.90
30889;DHT22;51092;50.874;7.024;2024-02-15T02:43:55;11.60;99.90
30889;DHT22;51092;50.874;7.024;2024-02-15T02:44:58;11.60;99.90
30889;DHT22;51092;50.874;7.024;2024-02-15T02:46:00;11.50;99.90
30889;DHT22;51092;50.874;7.024;2024-02-15T02:47:02;11.60;99.90
30889;DHT22;51092;50.874;7.024;2024-02-15T02:48:05;11.50;99.90
30889;DHT22;51092;50.874;7.024;2024-02-15T02:49:08;11.60;99.90
30889;DHT22;51092;50.874;7.024;2024-02-15T02:50:10;11.60;99.90
30889;DHT22;51092;50.874;7.024;2024-02-15T02:51:12;11.60;99.90
30889;DHT22;51092;50.874;7.024;2024-02-15T02:52:14;11.60;99.90
30889;DHT22;51092;50.874;7.024;2024-02-15T02:53:16;11.60;99.90
30889;DHT22;51092;50.874;7.024;2024-02-15T02:54:18;11.60;99.90
30889;DHT22;51092;50.874;7.024;2024-02-15T02:55:20;11.50;99.90
30889;DHT22;51092;50.874;7.024;2024-02-15T02:56:23;11.50;99.90
30889;DHT22;51092;50.874;7.024;2024-02-15T02:57:25;11.50;99.90
30889;DHT22;51092;50.874;7.024;2024-02-15T02:58:27;11.50;99.90
30889;DHT22;51092;50.874;7.024;2024-02-15T02:59:30;11.50;99.90
30889;DHT22;51092;50.874;7.024;2024-02-15T03:00:32;11.50;99.90
30889;DHT22;51092;50.874;7.024;2024-02-15T03:01:33;11.50;99.90
30889;DHT22;51092;50.874;7.024;2024-02-15T03:02:36;11.50;99.90
30889;DHT22;51092;50.874;7.024;2024-02-15T03:03:37;11.50;99.90
30889;DHT22;51092;50.874;7.024;2024-02-15T03:04:41;11.50;99.90
30889;DHT22;51092;50.874;7.024;2024-02-15T03:05:42;11.50;99.90
30889;DHT22;51092;50.874;7.024;2024-02-15T03:06:45;11.50;99.90
30889;DHT22;51092;50.874;7.024;2024-02-15T03:07:46;11.50;99.90
30889;DHT22;51092;50.874;7.024;2024-02-15T03:08:50;11.40;99.90
30889;DHT22;51092;50.874;7.024;2024-02-15T03:09:55;11.40;99.90
30889;DHT22;51092;50.874;7.024;2024-02-15T03:10:56;11.50;99.90
30889;DHT22;51092;50.874;7.024;2024-02-15T03:12:00;11.50;99.90
30889;DHT22;51092;50.874;7.024;2024-02-15T03:13:02;11.50;99.90
30889;DHT22;51092;50.874;7.024;2024-02-15T03:14:06;11.50;99.90
30889;DHT22;51092;50.874;7.024;2024-02-15T03:15:08;11.50;99.90
30889;DHT22;51092;50.874;7.024;2024-02-15T03:16:13;11.60;99.90
30889;DHT22;51092;50.874;7.024;2024-02-15T03:17:14;11.60;99.90
30889;DHT22;51092;50.874;7.024;2024-02-15T03:18:17;11.60;99.90
30889;DHT22;51092;50.874;7.024;2024-02-15T03:19:18;11.60;99.90
30889;DHT22;51092;50.874;7.024;2024-02-15T03:20:21;11.60;99.90
30889;DHT22;51092;50.874;7.024;2024-02-15T03:21:26;11.60;99.90
30889;DHT22;51092;50.874;7.024;2024-02-15T03:22:29;11.60;99.90
30889;DHT22;51092;50.874;7.024;2024-02-15T03:23:30;11.50;99.90
30889;DHT22;51092;50.874;7.024;2024-02-15T03:24:34;11.50;99.90
30889;DHT22;51092;50.874;7.024;2024-02-15T03:25:37;11.50;99.90
30889;DHT22;51092;50.874;7.024;2024-02-15T03:26:38;11.50;99.90
30889;DHT22;51092;50.874;7.024;2024-02-15T03:27:42;11.40;99.90
30889;DHT22;51092;50.874;7.024;2024-02-15T03:28:44;11.40;99.90
30889;DHT22;51092;50.874;7.024;2024-02-15T03:29:46;11.50;99.90
30889;DHT22;51092;50.874;7.024;2024-02-15T03:30:47;11.50;99.90
30889;DHT22;51092;50.874;7.024;2024-02-15T03:31:50;11.50;99.90
30889;DHT22;51092;50.874;7.024;2024-02-15T03:32:53;11.50;99.90
30889;DHT22;51092;50.874;7.024;2024-02-15T03:33:54;11.50;99.90
30889;DHT22;51092;50.874;7.024;2024-02-15T03:34:57;11.50;99.90
30889;DHT22;51092;50.874;7.024;2024-02-15T03:35:58;11.40;99.90
30889;DHT22;51092;50.874;7.024;2024-02-15T03:37:01;11.50;99.90
30889;DHT22;51092;50.874;7.024;2024-02-15T03:38:05;11.50;99.90
30889;DHT22;51092;50.874;7.024;2024-02-15T03:39:08;11.50;99.90
30889;DHT22;51092;50.874;7.024;2024-02-15T03:40:11;11.50;99.90
30889;DHT22;51092;50.874;7.024;2024-02-15T03:41:14;11.50;99.90
30889;DHT22;51092;50.874;7.024;2024-02-15T03:42:15;11.50;99.90
30889;DHT22;51092;50.874;7.024;2024-02-15T03:43:19;11.50;99.90
30889;DHT22;51092;50.874;7.024;2024-02-15T03:44:21;11.50;99.90
30889;DHT22;51092;50.874;7.024;2024-02-15T03:45:27;11.50;99.90
30889;DHT22;51092;50.874;7.024;2024-02-15T03:46:29;11.50;99.90
30889;DHT22;51092;50.874;7.024;2024-02-15T03:47:33;11.50;99.90
30889;DHT22;51092;50.874;7.024;2024-02-15T03:48:34;11.50;99.90
30889;DHT22;51092;50.874;7.024;2024-02-15T03:49:36;11.40;99.90
30889;DHT22;51092;50.874;7.024;2024-02-15T03:50:37;11.50;99.90
30889;DHT22;51092;50.874;7.024;2024-02-15T03:51:39;11.60;99.90
30889;DHT22;51092;50.874;7.024;2024-02-15T03:52:41;11.50;99.90
30889;DHT22;51092;50.874;7.024;2024-02-15T03:53:43;11.60;99.90
30889;DHT22;51092;50.874;7.024;2024-02-15T03:54:45;11.60;99.90
30889;DHT22;51092;50.874;7.024;2024-02-15T03:55:47;11.60;99.90
30889;DHT22;51092;50.874;7.024;2024-02-15T03:56:49;11.60;99.90
30889;DHT22;51092;50.874;7.024;2024-02-15T03:57:53;11.60;99.90
30889;DHT22;51092;50.874;7.024;2024-02-15T03:58:58;11.70;99.90
30889;DHT22;51092;50.874;7.024;2024-02-15T04:00:01;11.70;99.90
30889;DHT22;51092;50.874;7.024;2024-02-15T04:01:03;11.70;99.90
30889;DHT22;51092;50.874;7.024;2024-02-15T04:02:07;11.60;99.90
30889;DHT22;51092;50.874;7.024;2024-02-15T04:03:13;11.70;99.90
30889;DHT22;51092;50.874;7.024;2024-02-15T04:04:16;11.70;99.90
30889;DHT22;51092;50.874;7.024;2024-02-15T04:05:18;11.60;99.90
30889;DHT22;51092;50.874;7.024;2024-02-15T04:06:19;11.70;99.90
30889;DHT22;51092;50.874;7.024;2024-02-15T04:07:22;11.60;99.90
30889;DHT22;51092;50.874;7.024;2024-02-15T04:08:26;11.60;99.90
30889;DHT22;51092;50.874;7.024;2024-02-15T04:09:28;11.60;99.90
30889;DHT22;51092;50.874;7.024;2024-02-15T04:10:30;11.60;99.90
30889;DHT22;51092;50.874;7.024;2024-02-15T04:11:32;11.60;99.90
30889;DHT22;51092;50.874;7.024;2024-02-15T04:12:34;11.50;99.90
30889;DHT22;51092;50.874;7.024;2024-02-15T04:13:37;11.50;99.90
30889;DHT22;51092;50.874;7.024;2024-02-15T04:14:40;11.50;99.90
30889;DHT22;51092;50.874;7.024;2024-02-15T04:15:46;11.50;99.90
30889;DHT22;51092;50.874;7.024;2024-02-15T04:16:50;11.50;99.90
30889;DHT22;51092;50.874;7.024;2024-02-15T04:17:53;11.50;99.90
30889;DHT22;51092;50.874;7.024;2024-02-15T04:18:57;11.50;99.90
30889;DHT22;51092;50.874;7.024;2024-02-15T04:19:59;11.60;99.90
30889;DHT22;51092;50.874;7.024;2024-02-15T04:21:02;11.60;99.90
30889;DHT22;51092;50.874;7.024;2024-02-15T04:22:07;11.60;99.90
30889;DHT22;51092;50.874;7.024;2024-02-15T04:23:08;11.60;99.90
30889;DHT22;51092;50.874;7.024;2024-02-15T04:24:11;11.60;99.90
30889;DHT22;51092;50.874;7.024;2024-02-15T04:25:12;11.60;99.90
30889;DHT22;51092;50.874;7.024;2024-02-15T04:26:17;11.60;99.90
30889;DHT22;51092;50.874;7.024;2024-02-15T04:27:20;11.60;99.90
30889;DHT22;51092;50.874;7.024;2024-02-15T04:28:23;11.60;99.90
30889;DHT22;51092;50.874;7.024;2024-02-15T04:29:26;11.60;99.90
30889;DHT22;51092;50.874;7.024;2024-02-15T04:30:30;11.70;99.90
30889;DHT22;51092;50.874;7.024;2024-02-15T04:31:32;11.70;99.90
30889;DHT22;51092;50.874;7.024;2024-02-15T04:32:38;11.70;99.90
30889;DHT22;51092;50.874;7.024;2024-02-15T04:33:39;11.80;99.90
30889;DHT22;51092;50.874;7.024;2024-02-15T04:34:41;11.70;99.90
30889;DHT22;51092;50.874;7.024;2024-02-15T04:35:43;11.70;99.90
30889;DHT22;51092;50.874;7.024;2024-02-15T04:36:46;11.70;99.90
30889;DHT22;51092;50.874;7.024;2024-02-15T04:37:51;11.70;99.90
30889;DHT22;51092;50.874;7.024;2024-02-15T04:38:54;11.70;99.90
30889;DHT22;51092;50.874;7.024;2024-02-15T04:39:56;11.70;99.90
30889;DHT22;51092;50.874;7.024;2024-02-15T04:40:58;11.70;99.90
30889;DHT22;51092;50.874;7.024;2024-02-15T04:42:01;11.70;99.90
30889;DHT22;51092;50.874;7.024;2024-02-15T04:43:04;11.70;99.90
30889;DHT22;51092;50.874;7.024;2024-02-15T04:44:06;11.70;99.90
30889;DHT22;51092;50.874;7.024;2024-02-15T04:45:13;11.70;99.90
30889;DHT22;51092;50.874;7.024;2024-02-15T04:46:17;11.80;99.90
30889;DHT22;51092;50.874;7.024;2024-02-15T04:47:22;11.80;99.90
30889;DHT22;51092;50.874;7.024;2024-02-15T04:48:24;11.90;99.90
30889;DHT22;51092;50.874;7.024;2024-02-15T04:49:27;11.90;99.90
30889;DHT22;51092;50.874;7.024;2024-02-15T04:50:30;11.80;99.90
30889;DHT22;51092;50.874;7.024;2024-02-15T04:51:32;11.80;99.90
30889;DHT22;51092;50.874;7.024;2024-02-15T04:52:34;11.80;99.90
30889;DHT22;51092;50.874;7.024;2024-02-15T04:53:36;11.80;99.90
30889;DHT22;51092;50.874;7.024;2024-02-15T04:54:39;11.80;99.90
30889;DHT22;51092;50.874;7.024;2024-02-15T04:55:42;11.80;99.90
30889;DHT22;51092;50.874;7.024;2024-02-15T04:56:44;11.80;99.90
30889;DHT22;51092;50.874;7.024;2024-02-15T04:57:47;11.80;99.90
30889;DHT22;51092;50.874;7.024;2024-02-15T04:58:50;11.80;99.90
30889;DHT22;51092;50.874;7.024;2024-02-15T04:59:52;11.80;99.90
30889;DHT22;51092;50.874;7.024;2024-02-15T05:00:57;11.90;99.90
30889;DHT22;51092;50.874;7.024;2024-02-15T05:02:01;11.90;99.90
30889;DHT22;51092;50.874;7.024;2024-02-15T05:03:02;11.90;99.90
30889;DHT22;51092;50.874;7.024;2024-02-15T05:04:04;11.90;99.90
30889;DHT22;51092;50.874;7.024;2024-02-15T05:05:06;11.80;99.90
30889;DHT22;51092;50.874;7.024;2024-02-15T05:06:09;11.80;99.90
30889;DHT22;51092;50.874;7.024;2024-02-15T05:07:11;11.80;99.90
30889;DHT22;51092;50.874;7.024;2024-02-15T05:08:20;11.80;99.90
30889;DHT22;51092;50.874;7.024;2024-02-15T05:09:22;11.80;99.90
30889;DHT22;51092;50.874;7.024;2024-02-15T05:10:27;11.90;99.90
30889;DHT22;51092;50.874;7.024;2024-02-15T05:11:29;12.00;99.90
30889;DHT22;51092;50.874;7.024;2024-02-15T05:12:31;11.90;99.90
30889;DHT22;51092;50.874;7.024;2024-02-15T05:13:33;11.80;99.90
30889;DHT22;51092;50.874;7.024;2024-02-15T05:14:35;11.90;99.90
30889;DHT22;51092;50.874;7.024;2024-02-15T05:15:38;11.80;99.90
30889;DHT22;51092;50.874;7.024;2024-02-15T05:16:41;11.80;99.90
30889;DHT22;51092;50.874;7.024;2024-02-15T05:17:47;11.70;99.90
30889;DHT22;51092;50.874;7.024;2024-02-15T05:18:50;11.70;99.90
30889;DHT22;51092;50.874;7.024;2024-02-15T05:19:51;11.70;99.90
30889;DHT22;51092;50.874;7.024;2024-02-15T05:20:56;11.70;99.90
30889;DHT22;51092;50.874;7.024;2024-02-15T05:21:57;11.70;99.90
30889;DHT22;51092;50.874;7.024;2024-02-15T05:22:59;11.80;99.90
30889;DHT22;51092;50.874;7.024;2024-02-15T05:24:01;11.70;99.90
30889;DHT22;51092;50.874;7.024;2024-02-15T05:25:05;11.70;99.90
30889;DHT22;51092;50.874;7.024;2024-02-15T05:26:08;11.60;99.90
30889;DHT22;51092;50.874;7.024;2024-02-15T05:27:10;11.60;99.90
30889;DHT22;51092;50.874;7.024;2024-02-15T05:28:12;11.60;99.90
30889;DHT22;51092;50.874;7.024;2024-02-15T05:29:14;11.60;99.90
30889;DHT22;51092;50.874;7.024;2024-02-15T05:30:16;11.70;99.90
30889;DHT22;51092;50.874;7.024;2024-02-15T05:31:19;11.70;99.90
30889;DHT22;51092;50.874;7.024;2024-02-15T05:32:21;11.70;99.90
30889;DHT22;51092;50.874;7.024;2024-02-15T05:33:25;11.70;99.90
30889;DHT22;51092;50.874;7.024;2024-02-15T05:34:26;11.70;99.90
30889;DHT22;51092;50.874;7.024;2024-02-15T05:35:29;11.70;99.90
30889;DHT22;51092;50.874;7.024;2024-02-15T05:36:30;11.60;99.90
30889;DHT22;51092;50.874;7.024;2024-02-15T05:37:31;11.70;99.90
30889;DHT22;51092;50.874;7.024;2024-02-15T05:38:36;11.70;99.90
30889;DHT22;51092;50.874;7.024;2024-02-15T05:39:37;11.90;99.90
30889;DHT22;51092;50.874;7.024;2024-02-15T05:40:41;11.80;99.90
30889;DHT22;51092;50.874;7.024;2024-02-15T05:41:43;11.80;99.90
30889;DHT22;51092;50.874;7.024;2024-02-15T05:42:45;11.90;99.90
30889;DHT22;51092;50.874;7.024;2024-02-15T05:43:47;11.90;99.90
30889;DHT22;51092;50.874;7.024;2024-02-15T05:44:50;12.00;99.90
30889;DHT22;51092;50.874;7.024;2024-02-15T05:45:52;11.90;99.90
30889;DHT22;51092;50.874;7.024;2024-02-15T05:46:54;11.90;99.90
30889;DHT22;51092;50.874;7.024;2024-02-15T05:47:56;11.80;99.90
30889;DHT22;51092;50.874;7.024;2024-02-15T05:49:01;11.80;99.90
30889;DHT22;51092;50.874;7.024;2024-02-15T05:50:04;11.90;99.90
30889;DHT22;51092;50.874;7.024;2024-02-15T05:51:08;11.90;99.90
30889;DHT22;51092;50.874;7.024;2024-02-15T05:52:11;12.00;99.90
30889;DHT22;51092;50.874;7.024;2024-02-15T05:53:14;11.90;99.90
30889;DHT22;51092;50.874;7.024;2024-02-15T05:54:15;11.90;99.90
30889;DHT22;51092;50.874;7.024;2024-02-15T05:55:18;11.90;99.90
30889;DHT22;51092;50.874;7.024;2024-02-15T05:56:20;11.90;99.90
30889;DHT22;51092;50.874;7.024;2024-02-15T05:57:26;11.80;99.90
30889;DHT22;51092;50.874;7.024;2024-02-15T05:58:30;11.80;99.90
30889;DHT22;51092;50.874;7.024;2024-02-15T05:59:32;11.80;99.90
30889;DHT22;51092;50.874;7.024;2024-02-15T06:00:33;11.80;99.90
30889;DHT22;51092;50.874;7.024;2024-02-15T06:01:36;11.90;99.90
30889;DHT22;51092;50.874;7.024;2024-02-15T06:02:40;11.90;99.90
30889;DHT22;51092;50.874;7.024;2024-02-15T06:03:42;11.90;99.90
30889;DHT22;51092;50.874;7.024;2024-02-15T06:04:46;11.90;99.90
30889;DHT22;51092;50.874;7.024;2024-02-15T06:05:48;11.90;99.90
30889;DHT22;51092;50.874;7.024;2024-02-15T06:06:49;11.90;99.90
30889;DHT22;51092;50.874;7.024;2024-02-15T06:07:51;11.90;99.90
30889;DHT22;51092;50.874;7.024;2024-02-15T06:08:53;11.90;99.90
30889;DHT22;51092;50.874;7.024;2024-02-15T06:10:00;11.90;99.90
30889;DHT22;51092;50.874;7.024;2024-02-15T06:11:04;11.90;99.90
30889;DHT22;51092;50.874;7.024;2024-02-15T06:12:06;11.80;99.90
30889;DHT22;51092;50.874;7.024;2024-02-15T06:13:09;11.80;99.90
30889;DHT22;51092;50.874;7.024;2024-02-15T06:14:10;11.80;99.90
30889;DHT22;51092;50.874;7.024;2024-02-15T06:15:13;11.70;99.90
30889;DHT22;51092;50.874;7.024;2024-02-15T06:16:16;11.80;99.90
30889;DHT22;51092;50.874;7.024;2024-02-15T06:17:19;11.70;99.90
30889;DHT22;51092;50.874;7.024;2024-02-15T06:18:27;11.80;99.90
30889;DHT22;51092;50.874;7.024;2024-02-15T06:19:30;11.70;99.90
30889;DHT22;51092;50.874;7.024;2024-02-15T06:20:35;12.00;99.90
30889;DHT22;51092;50.874;7.024;2024-02-15T06:21:37;11.90;99.90
30889;DHT22;51092;50.874;7.024;2024-02-15T06:22:39;11.80;99.90
30889;DHT22;51092;50.874;7.024;2024-02-15T06:23:44;11.80;99.90
30889;DHT22;51092;50.874;7.024;2024-02-15T06:24:46;11.80;99.90
30889;DHT22;51092;50.874;7.024;2024-02-15T06:25:50;11.70;99.90
30889;DHT22;51092;50.874;7.024;2024-02-15T06:26:54;11.70;99.90
30889;DHT22;51092;50.874;7.024;2024-02-15T06:28:00;11.70;99.90
30889;DHT22;51092;50.874;7.024;2024-02-15T06:29:14;11.70;99.90
30889;DHT22;51092;50.874;7.024;2024-02-15T06:30:34;11.60;99.90
30889;DHT22;51092;50.874;7.024;2024-02-15T06:31:55;11.70;99.90
30889;DHT22;51092;50.874;7.024;2024-02-15T06:33:15;11.70;99.90
30889;DHT22;51092;50.874;7.024;2024-02-15T06:34:35;11.70;99.90
30889;DHT22;51092;50.874;7.024;2024-02-15T06:35:56;11.80;99.90
30889;DHT22;51092;50.874;7.024;2024-02-15T06:37:37;11.80;99.90